sensor_id;sensor_type;location;lat;lon;timestamp;pressure;altitude;pressure_sealevel;temperature;humidity
78383;BME280;67668;52.294;4.692;2023-05-23T00:03:54;102101.13;;;18.02;61.82
78383;BME280;67668;52.294;4.692;2023-05-23T00:06:20;102111.84;;;18.02;61.77
78383;BME280;67668;52.294;4.692;2023-05-23T00:08:45;102096.09;;;17.99;61.44
78383;BME280;67668;52.294;4.692;2023-05-23T00:11:11;102103.94;;;17.92;61.67
78383;BME280;67668;52.294;4.692;2023-05-23T00:13:37;102106.94;;;17.89;62.28
78383;BME280;67668;52.294;4.692;2023-05-23T00:16:04;102102.56;;;17.88;61.75
78383;BME280;67668;52.294;4.692;2023-05-23T00:18:34;102106.72;;;17.83;61.80
78383;BME280;67668;52.294;4.692;2023-05-23T00:21:00;102107.19;;;17.78;62.38
78383;BME280;67668;52.294;4.692;2023-05-23T00:23:27;102102.81;;;17.77;62.40
78383;BME280;67668;52.294;4.692;2023-05-23T00:25:54;102109.19;;;17.76;62.37
78383;BME280;67668;52.294;4.692;2023-05-23T00:28:20;102122.41;;;17.78;62.36
78383;BME280;67668;52.294;4.692;2023-05-23T00:30:46;102109.84;;;17.78;62.32
78383;BME280;67668;52.294;4.692;2023-05-23T00:33:14;102111.03;;;17.76;62.25
78383;BME280;67668;52.294;4.692;2023-05-23T00:35:40;102111.34;;;17.73;62.71
78383;BME280;67668;52.294;4.692;2023-05-23T00:38:06;102117.81;;;17.70;62.58
78383;BME280;67668;52.294;4.692;2023-05-23T00:40:32;102117.63;;;17.64;62.82
78383;BME280;67668;52.294;4.692;2023-05-23T00:42:59;102118.78;;;17.61;62.73
78383;BME280;67668;52.294;4.692;2023-05-23T00:45:25;102114.41;;;17.60;62.92
78383;BME280;67668;52.294;4.692;2023-05-23T00:47:50;102117.09;;;17.60;62.76
78383;BME280;67668;52.294;4.692;2023-05-23T00:50:16;102116.41;;;17.58;62.82
78383;BME280;67668;52.294;4.692;2023-05-23T00:52:44;102121.63;;;17.60;62.77
78383;BME280;67668;52.294;4.692;2023-05-23T00:55:10;102115.75;;;17.56;62.51
78383;BME280;67668;52.294;4.692;2023-05-23T00:57:37;102129.53;;;17.51;63.21
78383;BME280;67668;52.294;4.692;2023-05-23T01:00:11;102123.66;;;17.48;62.39
78383;BME280;67668;52.294;4.692;2023-05-23T01:02:41;102123.31;;;17.43;62.99
78383;BME280;67668;52.294;4.692;2023-05-23T01:05:09;102126.28;;;17.40;62.80
78383;BME280;67668;52.294;4.692;2023-05-23T01:07:35;102126.28;;;17.40;62.87
78383;BME280;67668;52.294;4.692;2023-05-23T01:10:01;102129.78;;;17.40;62.27
78383;BME280;67668;52.294;4.692;2023-05-23T01:15:13;102124.91;;;17.36;62.42
78383;BME280;67668;52.294;4.692;2023-05-23T01:18:15;102122.53;;;17.33;62.91
78383;BME280;67668;52.294;4.692;2023-05-23T01:20:51;102122.53;;;17.33;62.88
78383;BME280;67668;52.294;4.692;2023-05-23T01:23:59;102128.22;;;17.30;62.92
78383;BME280;67668;52.294;4.692;2023-05-23T01:26:42;102127.50;;;17.28;63.25
78383;BME280;67668;52.294;4.692;2023-05-23T01:29:21;102126.13;;;17.24;62.88
78383;BME280;67668;52.294;4.692;2023-05-23T01:31:52;102139.66;;;17.22;63.27
78383;BME280;67668;52.294;4.692;2023-05-23T01:34:18;102138.97;;;17.20;62.94
78383;BME280;67668;52.294;4.692;2023-05-23T01:36:44;102135.63;;;17.18;62.66
78383;BME280;67668;52.294;4.692;2023-05-23T01:39:11;102137.91;;;17.13;62.58
78383;BME280;67668;52.294;4.692;2023-05-23T01:41:36;102130.88;;;17.12;63.19
78383;BME280;67668;52.294;4.692;2023-05-23T01:44:02;102133.38;;;17.14;63.51
78383;BME280;67668;52.294;4.692;2023-05-23T01:46:28;102130.03;;;17.12;63.25
78383;BME280;67668;52.294;4.692;2023-05-23T01:48:55;102137.06;;;17.13;63.05
78383;BME280;67668;52.294;4.692;2023-05-23T01:51:22;102144.25;;;17.12;63.35
78383;BME280;67668;52.294;4.692;2023-05-23T01:53:51;102146.38;;;17.09;63.02
78383;BME280;67668;52.294;4.692;2023-05-23T01:56:16;102135.00;;;17.07;62.97
78383;BME280;67668;52.294;4.692;2023-05-23T01:58:42;102135.16;;;17.05;63.19
78383;BME280;67668;52.294;4.692;2023-05-23T02:01:08;102138.13;;;17.02;62.38
78383;BME280;67668;52.294;4.692;2023-05-23T02:03:34;102138.28;;;17.00;62.82
78383;BME280;67668;52.294;4.692;2023-05-23T02:05:59;102148.28;;;16.98;62.60
78383;BME280;67668;52.294;4.692;2023-05-23T02:08:25;102143.78;;;16.99;63.14
78383;BME280;67668;52.294;4.692;2023-05-23T02:10:51;102140.28;;;16.98;63.05
78383;BME280;67668;52.294;4.692;2023-05-23T02:13:17;102144.09;;;16.96;62.66
78383;BME280;67668;52.294;4.692;2023-05-23T02:15:42;102154.25;;;16.92;62.01
78383;BME280;67668;52.294;4.692;2023-05-23T02:18:08;102160.03;;;16.88;62.53
78383;BME280;67668;52.294;4.692;2023-05-23T02:20:33;102169.06;;;16.87;63.12
78383;BME280;67668;52.294;4.692;2023-05-23T02:22:59;102161.88;;;16.87;63.27
78383;BME280;67668;52.294;4.692;2023-05-23T02:25:24;102171.22;;;16.83;62.77
78383;BME280;67668;52.294;4.692;2023-05-23T02:27:50;102162.16;;;16.84;63.36
78383;BME280;67668;52.294;4.692;2023-05-23T02:30:15;102165.84;;;16.83;63.02
78383;BME280;67668;52.294;4.692;2023-05-23T02:32:41;102169.09;;;16.77;63.07
78383;BME280;67668;52.294;4.692;2023-05-23T02:35:07;102175.47;;;16.76;63.21
78383;BME280;67668;52.294;4.692;2023-05-23T02:37:32;102169.09;;;16.77;63.33
78383;BME280;67668;52.294;4.692;2023-05-23T02:39:58;102172.63;;;16.78;62.57
78383;BME280;67668;52.294;4.692;2023-05-23T02:42:23;102177.44;;;16.74;62.66
78383;BME280;67668;52.294;4.692;2023-05-23T02:44:48;102180.56;;;16.70;62.08
78383;BME280;67668;52.294;4.692;2023-05-23T02:47:14;102177.34;;;16.66;62.05
78383;BME280;67668;52.294;4.692;2023-05-23T02:49:39;102178.63;;;16.62;62.93
78383;BME280;67668;52.294;4.692;2023-05-23T02:52:06;102178.25;;;16.57;62.26
78383;BME280;67668;52.294;4.692;2023-05-23T02:54:31;102184.84;;;16.53;62.52
78383;BME280;67668;52.294;4.692;2023-05-23T02:56:56;102172.75;;;16.49;62.71
78383;BME280;67668;52.294;4.692;2023-05-23T02:59:22;102188.09;;;16.47;63.35
78383;BME280;67668;52.294;4.692;2023-05-23T03:01:48;102187.56;;;16.43;62.16
78383;BME280;67668;52.294;4.692;2023-05-23T03:04:13;102191.63;;;16.38;62.12
78383;BME280;67668;52.294;4.692;2023-05-23T03:06:38;102195.59;;;16.34;62.54
78383;BME280;67668;52.294;4.692;2023-05-23T03:09:07;102191.38;;;16.31;61.61
78383;BME280;67668;52.294;4.692;2023-05-23T03:11:32;102198.84;;;16.28;62.50
78383;BME280;67668;52.294;4.692;2023-05-23T03:13:58;102199.13;;;16.25;62.33
78383;BME280;67668;52.294;4.692;2023-05-23T03:16:23;102202.09;;;16.22;62.17
78383;BME280;67668;52.294;4.692;2023-05-23T03:18:49;102209.25;;;16.21;62.43
78383;BME280;67668;52.294;4.692;2023-05-23T03:21:14;102202.09;;;16.22;62.40
78383;BME280;67668;52.294;4.692;2023-05-23T03:23:40;102208.56;;;16.19;61.11
78383;BME280;67668;52.294;4.692;2023-05-23T03:26:05;102205.06;;;16.19;62.04
78383;BME280;67668;52.294;4.692;2023-05-23T03:28:32;102209.72;;;16.17;62.86
78383;BME280;67668;52.294;4.692;2023-05-23T03:30:57;102213.38;;;16.16;62.95
78383;BME280;67668;52.294;4.692;2023-05-23T03:33:23;102213.78;;;16.11;62.10
78383;BME280;67668;52.294;4.692;2023-05-23T03:35:49;102217.47;;;16.10;62.83
78383;BME280;67668;52.294;4.692;2023-05-23T03:38:15;102214.91;;;16.09;62.02
78383;BME280;67668;52.294;4.692;2023-05-23T03:40:40;102232.22;;;16.04;62.19
78383;BME280;67668;52.294;4.692;2023-05-23T03:43:07;102230.56;;;16.03;62.56
78383;BME280;67668;52.294;4.692;2023-05-23T03:45:32;102237.56;;;16.04;62.96
78383;BME280;67668;52.294;4.692;2023-05-23T03:47:58;102236.44;;;16.07;63.03
78383;BME280;67668;52.294;4.692;2023-05-23T03:50:24;102231.25;;;16.06;62.25
78383;BME280;67668;52.294;4.692;2023-05-23T03:52:49;102234.75;;;16.06;63.10
78383;BME280;67668;52.294;4.692;2023-05-23T03:55:15;102236.75;;;16.04;61.86
78383;BME280;67668;52.294;4.692;2023-05-23T03:57:40;102238.41;;;15.95;61.50
78383;BME280;67668;52.294;4.692;2023-05-23T04:00:06;102244.19;;;15.91;61.89
78383;BME280;67668;52.294;4.692;2023-05-23T04:02:36;102242.63;;;15.88;61.93
78383;BME280;67668;52.294;4.692;2023-05-23T04:05:01;102244.63;;;15.86;60.63
78383;BME280;67668;52.294;4.692;2023-05-23T04:07:27;102249.41;;;15.83;61.64
78383;BME280;67668;52.294;4.692;2023-05-23T04:09:52;102245.47;;;15.77;61.15
78383;BME280;67668;52.294;4.692;2023-05-23T04:12:18;102248.97;;;15.78;61.62
78383;BME280;67668;52.294;4.692;2023-05-23T04:14:43;102250.81;;;15.77;61.38
78383;BME280;67668;52.294;4.692;2023-05-23T04:17:11;102245.47;;;15.77;61.88
78383;BME280;67668;52.294;4.692;2023-05-23T04:19:37;102246.00;;;15.71;60.91
78383;BME280;67668;52.294;4.692;2023-05-23T04:22:02;102246.00;;;15.71;61.45
78383;BME280;67668;52.294;4.692;2023-05-23T04:24:28;102255.03;;;15.70;60.98
78383;BME280;67668;52.294;4.692;2023-05-23T04:26:53;102253.34;;;15.69;61.61
78383;BME280;67668;52.294;4.692;2023-05-23T04:29:20;102266.00;;;15.67;62.07
78383;BME280;67668;52.294;4.692;2023-05-23T04:31:46;102263.44;;;15.66;60.60
78383;BME280;67668;52.294;4.692;2023-05-23T04:34:11;102275.81;;;15.67;61.60
78383;BME280;67668;52.294;4.692;2023-05-23T04:36:36;102268.78;;;15.66;61.15
78383;BME280;67668;52.294;4.692;2023-05-23T04:39:04;102280.59;;;15.63;61.10
78383;BME280;67668;52.294;4.692;2023-05-23T04:41:29;102291.53;;;15.60;61.16
78383;BME280;67668;52.294;4.692;2023-05-23T04:43:55;102280.59;;;15.54;60.49
78383;BME280;67668;52.294;4.692;2023-05-23T04:46:22;102282.53;;;15.51;60.77
78383;BME280;67668;52.294;4.692;2023-05-23T04:48:53;102280.88;;;15.50;61.40
78383;BME280;67668;52.294;4.692;2023-05-23T04:51:20;102280.00;;;15.50;61.75
78383;BME280;67668;52.294;4.692;2023-05-23T04:53:49;102288.16;;;15.48;60.91
78383;BME280;67668;52.294;4.692;2023-05-23T04:56:15;102281.97;;;15.48;61.86
78383;BME280;67668;52.294;4.692;2023-05-23T04:58:42;102292.38;;;15.51;61.97
78383;BME280;67668;52.294;4.692;2023-05-23T05:01:10;102294.31;;;15.49;60.15
78383;BME280;67668;52.294;4.692;2023-05-23T05:03:35;102294.56;;;15.46;61.29
78383;BME280;67668;52.294;4.692;2023-05-23T05:06:01;102303.56;;;15.45;60.80
78383;BME280;67668;52.294;4.692;2023-05-23T05:08:27;102303.97;;;15.40;61.01
78383;BME280;67668;52.294;4.692;2023-05-23T05:10:53;102306.06;;;15.37;59.83
78383;BME280;67668;52.294;4.692;2023-05-23T05:13:19;102302.97;;;15.32;60.52
78383;BME280;67668;52.294;4.692;2023-05-23T05:15:45;102311.97;;;15.31;60.37
78383;BME280;67668;52.294;4.692;2023-05-23T05:18:11;102302.38;;;15.28;61.19
78383;BME280;67668;52.294;4.692;2023-05-23T05:20:37;102310.13;;;15.31;61.67
78383;BME280;67668;52.294;4.692;2023-05-23T05:23:03;102317.03;;;15.34;60.91
78383;BME280;67668;52.294;4.692;2023-05-23T05:25:28;102311.69;;;15.34;62.12
78383;BME280;67668;52.294;4.692;2023-05-23T05:27:59;102314.19;;;15.35;61.82
78383;BME280;67668;52.294;4.692;2023-05-23T05:30:26;102319.41;;;15.37;61.39
78383;BME280;67668;52.294;4.692;2023-05-23T05:32:51;102318.97;;;15.32;60.85
78383;BME280;67668;52.294;4.692;2023-05-23T05:35:17;102331.72;;;15.28;61.42
78383;BME280;67668;52.294;4.692;2023-05-23T05:37:42;102321.22;;;15.27;61.65
78383;BME280;67668;52.294;4.692;2023-05-23T05:40:08;102329.91;;;15.29;62.88
78383;BME280;67668;52.294;4.692;2023-05-23T05:42:34;102334.13;;;15.31;63.67
78383;BME280;67668;52.294;4.692;2023-05-23T05:44:59;102334.97;;;15.32;62.77
78383;BME280;67668;52.294;4.692;2023-05-23T05:47:25;102335.53;;;15.26;62.87
78383;BME280;67668;52.294;4.692;2023-05-23T05:49:51;102328.50;;;15.25;63.25
78383;BME280;67668;52.294;4.692;2023-05-23T05:52:16;102339.16;;;15.25;63.24
78383;BME280;67668;52.294;4.692;2023-05-23T05:54:42;102349.00;;;15.24;62.70
78383;BME280;67668;52.294;4.692;2023-05-23T05:57:07;102346.75;;;15.20;63.52
78383;BME280;67668;52.294;4.692;2023-05-23T05:59:33;102343.22;;;15.19;63.38
78383;BME280;67668;52.294;4.692;2023-05-23T06:01:58;102333.41;;;15.20;63.87
78383;BME280;67668;52.294;4.692;2023-05-23T06:04:23;102347.44;;;15.22;63.61
78383;BME280;67668;52.294;4.692;2023-05-23T06:06:49;102342.94;;;15.22;63.19
78383;BME280;67668;52.294;4.692;2023-05-23T06:09:15;102353.78;;;15.21;63.57
78383;BME280;67668;52.294;4.692;2023-05-23T06:11:40;102357.53;;;15.18;63.74
78383;BME280;67668;52.294;4.692;2023-05-23T06:14:06;102364.13;;;15.14;63.11
78383;BME280;67668;52.294;4.692;2023-05-23T06:16:32;102361.59;;;15.13;63.72
78383;BME280;67668;52.294;4.692;2023-05-23T06:18:57;102368.63;;;15.14;63.26
78383;BME280;67668;52.294;4.692;2023-05-23T06:21:22;102364.94;;;15.15;63.31
78383;BME280;67668;52.294;4.692;2023-05-23T06:23:48;102373.94;;;15.14;63.02
78383;BME280;67668;52.294;4.692;2023-05-23T06:26:13;102367.88;;;15.12;63.17
78383;BME280;67668;52.294;4.692;2023-05-23T06:28:39;102369.72;;;15.11;63.42
78383;BME280;67668;52.294;4.692;2023-05-23T06:31:04;102374.22;;;15.11;62.56
78383;BME280;67668;52.294;4.692;2023-05-23T06:33:31;102365.22;;;15.12;62.56
78383;BME280;67668;52.294;4.692;2023-05-23T06:35:56;102369.72;;;15.11;62.25
78383;BME280;67668;52.294;4.692;2023-05-23T06:38:22;102373.94;;;15.14;62.36
78383;BME280;67668;52.294;4.692;2023-05-23T06:40:47;102364.25;;;15.13;61.24
78383;BME280;67668;52.294;4.692;2023-05-23T06:43:13;102362.56;;;15.12;59.43
78383;BME280;67668;52.294;4.692;2023-05-23T06:45:38;102362.81;;;15.09;59.92
78383;BME280;67668;52.294;4.692;2023-05-23T06:48:03;102364.94;;;15.15;61.21
78383;BME280;67668;52.294;4.692;2023-05-23T06:50:29;102362.03;;;15.18;59.02
78383;BME280;67668;52.294;4.692;2023-05-23T06:52:54;102359.09;;;15.21;60.37
78383;BME280;67668;52.294;4.692;2023-05-23T06:55:21;102368.50;;;15.25;59.22
78383;BME280;67668;52.294;4.692;2023-05-23T06:57:46;102370.66;;;15.31;58.78
78383;BME280;67668;52.294;4.692;2023-05-23T07:00:14;102369.53;;;15.33;58.46
78383;BME280;67668;52.294;4.692;2023-05-23T07:02:40;102377.00;;;15.39;59.09
78383;BME280;67668;52.294;4.692;2023-05-23T07:05:06;102380.09;;;15.44;58.30
78383;BME280;67668;52.294;4.692;2023-05-23T07:07:31;102373.25;;;15.51;58.87
78383;BME280;67668;52.294;4.692;2023-05-23T07:10:02;102374.56;;;15.57;58.09
78383;BME280;67668;52.294;4.692;2023-05-23T07:12:28;102382.72;;;15.65;58.40
78383;BME280;67668;52.294;4.692;2023-05-23T07:14:53;102371.47;;;15.71;58.97
78383;BME280;67668;52.294;4.692;2023-05-23T07:17:19;102374.88;;;15.83;58.23
78383;BME280;67668;52.294;4.692;2023-05-23T07:19:45;102386.53;;;15.91;57.52
78383;BME280;67668;52.294;4.692;2023-05-23T07:22:10;102390.22;;;16.00;57.46
78383;BME280;67668;52.294;4.692;2023-05-23T07:24:36;102385.03;;;16.08;56.09
78383;BME280;67668;52.294;4.692;2023-05-23T07:27:02;102385.19;;;16.16;57.29
78383;BME280;67668;52.294;4.692;2023-05-23T07:29:27;102392.22;;;16.27;57.68
78383;BME280;67668;52.294;4.692;2023-05-23T07:31:53;102391.06;;;16.39;56.92
78383;BME280;67668;52.294;4.692;2023-05-23T07:34:18;102396.41;;;16.48;56.90
78383;BME280;67668;52.294;4.692;2023-05-23T07:36:44;102388.28;;;16.60;56.93
78383;BME280;67668;52.294;4.692;2023-05-23T07:39:10;102396.13;;;16.71;54.95
78383;BME280;67668;52.294;4.692;2023-05-23T07:41:36;102399.50;;;16.82;56.53
78383;BME280;67668;52.294;4.692;2023-05-23T07:44:01;102395.50;;;16.96;55.73
78383;BME280;67668;52.294;4.692;2023-05-23T07:46:26;102393.19;;;17.11;56.08
78383;BME280;67668;52.294;4.692;2023-05-23T07:48:52;102405.97;;;17.26;54.96
78383;BME280;67668;52.294;4.692;2023-05-23T07:51:17;102401.25;;;17.38;55.63
78383;BME280;67668;52.294;4.692;2023-05-23T07:53:45;102404.75;;;17.48;54.72
78383;BME280;67668;52.294;4.692;2023-05-23T07:56:11;102407.94;;;17.61;54.95
78383;BME280;67668;52.294;4.692;2023-05-23T07:58:36;102418.16;;;17.75;54.41
78383;BME280;67668;52.294;4.692;2023-05-23T08:01:02;102418.63;;;17.88;54.42
78383;BME280;67668;52.294;4.692;2023-05-23T08:03:27;102416.75;;;17.98;54.05
78383;BME280;67668;52.294;4.692;2023-05-23T08:05:53;102413.84;;;18.10;52.00
78383;BME280;67668;52.294;4.692;2023-05-23T08:08:18;102422.50;;;18.21;53.24
78383;BME280;67668;52.294;4.692;2023-05-23T08:10:43;102419.06;;;18.29;51.07
78383;BME280;67668;52.294;4.692;2023-05-23T08:13:10;102419.66;;;18.40;52.26
78383;BME280;67668;52.294;4.692;2023-05-23T08:15:35;102417.44;;;18.53;50.72
78383;BME280;67668;52.294;4.692;2023-05-23T08:18:00;102432.31;;;18.66;51.67
78383;BME280;67668;52.294;4.692;2023-05-23T08:20:27;102427.38;;;18.79;50.84
78383;BME280;67668;52.294;4.692;2023-05-23T08:23:00;102417.22;;;18.90;50.94
78383;BME280;67668;52.294;4.692;2023-05-23T08:25:26;102424.00;;;19.02;51.16
78383;BME280;67668;52.294;4.692;2023-05-23T08:27:58;102414.19;;;19.11;49.64
78383;BME280;67668;52.294;4.692;2023-05-23T08:30:24;102428.34;;;19.21;47.80
78383;BME280;67668;52.294;4.692;2023-05-23T08:32:53;102424.84;;;19.29;48.99
78383;BME280;67668;52.294;4.692;2023-05-23T08:35:20;102416.69;;;19.38;48.23
78383;BME280;67668;52.294;4.692;2023-05-23T08:37:46;102418.75;;;19.44;47.54
78383;BME280;67668;52.294;4.692;2023-05-23T08:40:20;102416.94;;;19.53;47.30
78383;BME280;67668;52.294;4.692;2023-05-23T08:42:46;102418.47;;;19.64;48.68
78383;BME280;67668;52.294;4.692;2023-05-23T08:45:12;102422.72;;;19.74;48.66
78383;BME280;67668;52.294;4.692;2023-05-23T08:47:41;102420.75;;;19.84;47.94
78383;BME280;67668;52.294;4.692;2023-05-23T08:50:11;102432.34;;;19.93;48.45
78383;BME280;67668;52.294;4.692;2023-05-23T08:52:42;102433.22;;;20.01;48.66
78383;BME280;67668;52.294;4.692;2023-05-23T08:55:10;102438.25;;;20.12;47.80
78383;BME280;67668;52.294;4.692;2023-05-23T08:57:37;102441.84;;;20.21;48.00
78383;BME280;67668;52.294;4.692;2023-05-23T09:00:03;102441.84;;;20.29;47.70
78383;BME280;67668;52.294;4.692;2023-05-23T09:02:38;102449.94;;;20.37;47.72
78383;BME280;67668;52.294;4.692;2023-05-23T09:05:04;102456.50;;;20.43;46.68
78383;BME280;67668;52.294;4.692;2023-05-23T09:07:30;102450.63;;;20.47;46.43
78383;BME280;67668;52.294;4.692;2023-05-23T09:09:55;102447.41;;;20.52;46.56
78383;BME280;67668;52.294;4.692;2023-05-23T09:12:20;102456.34;;;20.60;46.47
78383;BME280;67668;52.294;4.692;2023-05-23T09:14:49;102459.88;;;20.69;45.15
78383;BME280;67668;52.294;4.692;2023-05-23T09:17:17;102454.34;;;20.71;44.83
78383;BME280;67668;52.294;4.692;2023-05-23T09:19:43;102454.31;;;20.79;45.32
78383;BME280;67668;52.294;4.692;2023-05-23T09:22:11;102464.59;;;20.83;45.53
78383;BME280;67668;52.294;4.692;2023-05-23T09:24:37;102458.84;;;20.86;43.92
78383;BME280;67668;52.294;4.692;2023-05-23T09:27:04;102469.94;;;20.91;42.90
78383;BME280;67668;52.294;4.692;2023-05-23T09:29:30;102470.78;;;21.00;44.36
78383;BME280;67668;52.294;4.692;2023-05-23T09:32:09;102473.31;;;21.01;44.62
78383;BME280;67668;52.294;4.692;2023-05-23T09:34:35;102478.84;;;21.08;44.47
78383;BME280;67668;52.294;4.692;2023-05-23T09:37:00;102478.56;;;21.11;44.81
78383;BME280;67668;52.294;4.692;2023-05-23T09:39:25;102476.34;;;21.14;44.93
78383;BME280;67668;52.294;4.692;2023-05-23T09:41:51;102486.09;;;21.16;44.23
78383;BME280;67668;52.294;4.692;2023-05-23T09:44:22;102479.38;;;21.20;44.32
78383;BME280;67668;52.294;4.692;2023-05-23T09:46:49;102484.91;;;21.26;43.79
78383;BME280;67668;52.294;4.692;2023-05-23T09:49:17;102478.00;;;21.32;43.82
78383;BME280;67668;52.294;4.692;2023-05-23T09:51:43;102480.34;;;21.35;43.68
78383;BME280;67668;52.294;4.692;2023-05-23T09:54:08;102485.38;;;21.38;43.41
78383;BME280;67668;52.294;4.692;2023-05-23T09:56:39;102486.91;;;21.40;42.96
78383;BME280;67668;52.294;4.692;2023-05-23T09:59:08;102487.75;;;21.41;42.65
78383;BME280;67668;52.294;4.692;2023-05-23T10:01:37;102492.78;;;21.44;43.61
78383;BME280;67668;52.294;4.692;2023-05-23T10:04:04;102494.94;;;21.48;43.47
78383;BME280;67668;52.294;4.692;2023-05-23T10:06:37;102495.44;;;21.52;43.18
78383;BME280;67668;52.294;4.692;2023-05-23T10:09:08;102489.22;;;21.51;43.08
78383;BME280;67668;52.294;4.692;2023-05-23T10:14:22;102500.50;;;21.55;43.85
78383;BME280;67668;52.294;4.692;2023-05-23T10:17:00;102497.28;;;21.59;43.14
78383;BME280;67668;52.294;4.692;2023-05-23T10:19:34;102501.84;;;21.59;42.34
78383;BME280;67668;52.294;4.692;2023-05-23T10:22:04;102488.00;;;21.62;42.37
78383;BME280;67668;52.294;4.692;2023-05-23T10:24:31;102495.75;;;21.65;42.17
78383;BME280;67668;52.294;4.692;2023-05-23T10:26:58;102498.44;;;21.65;41.88
78383;BME280;67668;52.294;4.692;2023-05-23T10:29:24;102486.66;;;21.66;42.51
78383;BME280;67668;52.294;4.692;2023-05-23T10:31:51;102508.22;;;21.66;42.74
78383;BME280;67668;52.294;4.692;2023-05-23T10:37:02;102494.91;;;21.64;41.43
78383;BME280;67668;52.294;4.692;2023-05-23T10:45:17;102500.97;;;21.67;42.67
78383;BME280;67668;52.294;4.692;2023-05-23T10:47:45;102499.13;;;21.67;42.47
78383;BME280;67668;52.294;4.692;2023-05-23T10:50:12;102503.47;;;21.68;42.22
78383;BME280;67668;52.294;4.692;2023-05-23T10:52:39;102497.72;;;21.71;41.72
78383;BME280;67668;52.294;4.692;2023-05-23T10:55:13;102500.28;;;21.73;42.01
78383;BME280;67668;52.294;4.692;2023-05-23T10:57:39;102495.72;;;21.73;41.28
78383;BME280;67668;52.294;4.692;2023-05-23T11:00:16;102501.78;;;21.75;41.48
78383;BME280;67668;52.294;4.692;2023-05-23T11:02:58;102500.56;;;21.78;42.10
78383;BME280;67668;52.294;4.692;2023-05-23T11:05:27;102511.84;;;21.81;41.30
78383;BME280;67668;52.294;4.692;2023-05-23T11:08:08;102519.28;;;21.87;40.71
78383;BME280;67668;52.294;4.692;2023-05-23T11:10:59;102511.34;;;21.94;42.14
78383;BME280;67668;52.294;4.692;2023-05-23T11:13:52;102506.44;;;21.97;40.36
78383;BME280;67668;52.294;4.692;2023-05-23T11:18:51;102512.78;;;22.04;40.50
78383;BME280;67668;52.294;4.692;2023-05-23T11:21:18;102510.41;;;22.09;40.77
78383;BME280;67668;52.294;4.692;2023-05-23T11:23:44;102515.47;;;22.12;40.87
78383;BME280;67668;52.294;4.692;2023-05-23T11:26:29;102513.06;;;22.17;40.42
78383;BME280;67668;52.294;4.692;2023-05-23T11:28:56;102513.03;;;22.26;40.05
78383;BME280;67668;52.294;4.692;2023-05-23T11:31:22;102512.50;;;22.30;40.57
78383;BME280;67668;52.294;4.692;2023-05-23T11:33:51;102519.19;;;22.34;40.69
78383;BME280;67668;52.294;4.692;2023-05-23T11:36:16;102512.28;;;22.40;40.25
78383;BME280;67668;52.294;4.692;2023-05-23T11:38:42;102511.72;;;22.44;39.64
78383;BME280;67668;52.294;4.692;2023-05-23T11:41:07;102515.75;;;22.48;40.16
78383;BME280;67668;52.294;4.692;2023-05-23T11:43:34;102524.16;;;22.53;38.48
78383;BME280;67668;52.294;4.692;2023-05-23T11:46:07;102518.03;;;22.59;39.50
78383;BME280;67668;52.294;4.692;2023-05-23T11:48:32;102521.53;;;22.68;37.78
78383;BME280;67668;52.294;4.692;2023-05-23T11:50:58;102520.16;;;22.72;38.10
78383;BME280;67668;52.294;4.692;2023-05-23T11:53:26;102524.19;;;22.76;39.19
78383;BME280;67668;52.294;4.692;2023-05-23T11:55:54;102514.88;;;22.79;38.72
78383;BME280;67668;52.294;4.692;2023-05-23T11:58:33;102512.28;;;22.85;39.15
78383;BME280;67668;52.294;4.692;2023-05-23T12:01:00;102530.28;;;22.93;39.09
78383;BME280;67668;52.294;4.692;2023-05-23T12:03:26;102511.19;;;22.94;38.42
78383;BME280;67668;52.294;4.692;2023-05-23T12:05:53;102524.16;;;22.99;39.01
78383;BME280;67668;52.294;4.692;2023-05-23T12:08:19;102519.72;;;23.06;39.17
78383;BME280;67668;52.294;4.692;2023-05-23T12:10:51;102517.13;;;23.12;39.51
78383;BME280;67668;52.294;4.692;2023-05-23T12:13:18;102542.00;;;23.23;38.94
78383;BME280;67668;52.294;4.692;2023-05-23T12:15:43;102521.88;;;23.25;38.45
78383;BME280;67668;52.294;4.692;2023-05-23T12:18:10;102521.34;;;23.30;38.05
78383;BME280;67668;52.294;4.692;2023-05-23T12:20:37;102537.19;;;23.33;38.03
78383;BME280;67668;52.294;4.692;2023-05-23T12:23:03;102524.31;;;23.35;37.78
78383;BME280;67668;52.294;4.692;2023-05-23T12:25:37;102520.22;;;23.39;37.14
78383;BME280;67668;52.294;4.692;2023-05-23T12:28:04;102528.16;;;23.40;36.11
78383;BME280;67668;52.294;4.692;2023-05-23T12:30:40;102514.50;;;23.42;37.29
78383;BME280;67668;52.294;4.692;2023-05-23T12:33:09;102519.16;;;23.48;36.69
78383;BME280;67668;52.294;4.692;2023-05-23T12:35:36;102528.38;;;23.53;37.35
78383;BME280;67668;52.294;4.692;2023-05-23T12:38:01;102531.75;;;23.55;37.92
78383;BME280;67668;52.294;4.692;2023-05-23T12:40:27;102535.94;;;23.58;37.63
78383;BME280;67668;52.294;4.692;2023-05-23T12:42:55;102526.81;;;23.59;37.50
78383;BME280;67668;52.294;4.692;2023-05-23T12:45:30;102527.44;;;23.61;37.16
78383;BME280;67668;52.294;4.692;2023-05-23T12:47:56;102536.88;;;23.65;37.28
78383;BME280;67668;52.294;4.692;2023-05-23T12:50:22;102530.25;;;23.67;36.78
78383;BME280;67668;52.294;4.692;2023-05-23T12:52:47;102525.31;;;23.71;37.04
78383;BME280;67668;52.294;4.692;2023-05-23T12:55:13;102527.84;;;23.73;36.46
78383;BME280;67668;52.294;4.692;2023-05-23T12:57:39;102527.38;;;23.69;36.57
78383;BME280;67668;52.294;4.692;2023-05-23T13:00:05;102543.75;;;23.67;36.29
78383;BME280;67668;52.294;4.692;2023-05-23T13:02:31;102536.41;;;23.61;36.69
78383;BME280;67668;52.294;4.692;2023-05-23T13:04:57;102543.66;;;23.61;35.79
78383;BME280;67668;52.294;4.692;2023-05-23T13:07:22;102541.72;;;23.55;36.20
78383;BME280;67668;52.294;4.692;2023-05-23T13:09:49;102545.81;;;23.51;36.56